Ana Sayfa
METAR-TAF:

METAR-TAF

Havaalanları :

Tarawa, Kiribati

Bonriki Uluslararası Havalimanı

Enlem: 01-21N, Boylam: 172-55E, yükseklik: 2 m

Güncel hava durumu gözlemi

Rapor saat 19:00 UTC de 29 dakika önce yapıldı.
Rüzgar doğudan 22 kt
Sıcaklık 28°C
Nem 84%
Basınç 1007 hPa
Görüş mesafesi 10 km veya daha fazla
1800 ft yükseklikte parçalı bulutlu

METAR: NGTA 191900Z 09022KT 9999 SCT018 28/25 Q1007

Saat: 09:29 (19:29 UTC)

Tahmin

Rapor saat 17:02 UTC de 2 saat ve 27 dakika önce yapıldı.
Ayın 19'si saat 18 UTC'den ayın 20'si saat 18 UTC'ye kadar geçerli Tahmin
Rüzgar doğudan 18 kt
Görüş mesafesi 10 km veya daha fazla
1800 ft yükseklikte parçalı bulutlu

TAF: NGTA 191702Z 1918/2018 09018KT 9999 SCT018

4.000'den fazla havaalanı için hava durumu gözlemleri ve tahminleri (METAR ve TAF raporları).

Kullanılabilir istasyonlar harita üzerinde sarı ve kırmızı noktalarla gösterilir.

İstasyonun adını görmek için fareyi noktanın üzerinde gezdirin.

Sonrasında hava gözlem ve tahminlerini görmek için tıklayın.

Haritayı değiştirmek için: yaklaştırmak için siyah artı işaretli yeşil düğmeye ve uzaklaştırmak için de eksi işaretli düğmeye hızla tıklayın; bitişik haritalar için yeşil okları kullanın.


METAR-TAF: